Metar Cercanos

 

LEPA - Palma De Mallorc, Spain
Distance from station: ONO 38km
Actualización: 27/04/2018 08:30
Despejado
Despejado
 Viento del varies
Viento: varies 2 km/h
Temperatura: 12°C
Rocío: 10°C
Humedad: 88%
Barómetro: 1013 hPa
Resumen: Despejado
Visibility: greater than 10 km
2018/04/27 06:30 LEPA 270630Z VRB01KT CAVOK 12/10 Q1013 NOSIG
LEMH - Mahon/Menorca Is, Spain
Distance from station: ENE 105km
Actualización: 27/04/2018 08:30
Despejado
Despejado
 Viento del N
Viento: N 9 km/h
Temperatura: 16°C
Rocío: 13°C
Humedad: 83%
Barómetro: 1012 hPa
Resumen: Despejado
Visibility: greater than 10 km
2018/04/27 06:30 LEMH 270630Z 36005KT 330V030 CAVOK 16/13 Q1012
 
LEIB - Ibiza/Es Codola, Spain
Distance from station: OSO 165km
Actualización: 27/04/2018 08:30
Despejado
Despejado
 Viento del SO
Viento: SO 4 km/h
Temperatura: 14°C
Rocío: 13°C
Humedad: 94%
Barómetro: 1014 hPa
Resumen: Despejado
Visibility: greater than 10 km
2018/04/27 06:30 LEIB 270630Z 22002KT CAVOK 14/13 Q1014 NOSIG
LEBL - Barcelona Airpor, Spain
Distance from station: NNO 225km
Actualización: 27/04/2018 08:30
Few Clouds
Few Clouds
 Viento del O
Viento: O 15 km/h
Temperatura: 16°C
Rocío: 13°C
Humedad: 83%
Barómetro: 1012 hPa
Clouds: Few Clouds
Visibility: 9 km
Cloud details: Few Clouds 579 m
2018/04/27 06:30 LEBL 270630Z 27008KT 240V310 9000 FEW019 16/13 Q1012 NOSIG
 
LEVC - Valencia (civ/Mi, Spain
Distance from station: NO 188km
Actualización: 27/04/2018 08:30
Despejado
Despejado
 Viento del ENE
Viento: ENE 6 km/h
Temperatura: 16°C
Rocío: 12°C
Humedad: 77%
Barómetro: 1012 hPa
Resumen: Despejado
Visibility: greater than 10 km
2018/04/27 06:30 LEVC 270630Z 06003KT 020V120 CAVOK 16/12 Q1012 NOSIG
LEGE - Gerona/Costa Bra, Spain
Distance from station: N 276km
Actualización: 27/04/2018 08:30
Despejado
Despejado
 Viento del varies
Viento: varies 4 km/h
Temperatura: 12°C
Rocío: 10°C
Humedad: 88%
Barómetro: 1012 hPa
Resumen: Despejado
Visibility: greater than 10 km
2018/04/27 06:30 LEGE 270630Z VRB02KT CAVOK 12/10 Q1012
 
LEAL - Alicante/El Alte, Spain
Distance from station: OSO 344km
Actualización: 27/04/2018 08:30
Despejado
Despejado
 Viento del OSO
Viento: OSO 6 km/h
Temperatura: 14°C
Rocío: 14°C
Humedad: 100%
Barómetro: 1013 hPa
Resumen: Despejado
Visibility: greater than 10 km
2018/04/27 06:30 LEAL 270630Z 25003KT CAVOK 14/14 Q1013 NOSIG
LEAM - Almeria Airport, Spain
Distance from station: SSO 56km
Actualización: 27/04/2018 08:30
Parcialmente nuboso
Parcialmente nuboso
 Viento del varies
Viento: varies 2 km/h
Temperatura: 16°C
Rocío: 15°C
Humedad: 94%
Barómetro: 1014 hPa
Clouds: Parcialmente nuboso
Visibility: 7 km
Cloud details: Parcialmente nuboso 213 m
2018/04/27 06:30 LEAM 270630Z VRB01KT 7000 SCT007 16/15 Q1014
 
LEZG - Zaragoza (mil/Ci, Spain
Distance from station: NO 431km
Actualización: 27/04/2018 08:30
Few Clouds
Few Clouds
 Viento del varies
Viento: varies 4 km/h
Temperatura: 12°C
Rocío: 10°C
Humedad: 88%
Barómetro: 1012 hPa
Clouds: Few Clouds
Visibility: 10 km
Cloud details: Few Clouds 1219 m
2018/04/27 06:30 LEZG 270630Z VRB02KT 9999 FEW040 12/10 Q1012
LEMD - Madrid/Barajas, Spain
Distance from station: ONO 234km
Actualización: 27/04/2018 08:30
Despejado
Despejado
 Viento del E
Viento: E 6 km/h
Temperatura: 15°C
Rocío: 13°C
Humedad: 88%
Barómetro: 1013 hPa
Resumen: Despejado
Visibility: greater than 10 km
2018/04/27 06:30 LEMD 270630Z 10003KT 030V120 CAVOK 15/13 Q1013 NOSIG
 
LEGR - Granada Airport, Spain
Distance from station: OSO 62km
Actualización: 27/04/2018 08:30
Parcialmente nuboso
Parcialmente nuboso
 Viento del O
Viento: O 2 km/h
Temperatura: 14°C
Rocío: 13°C
Humedad: 94%
Barómetro: 1017 hPa
Clouds: Parcialmente nuboso
Visibility: 10 km
Cloud details: Few Clouds 610 m
Parcialmente nuboso 1524 m
2018/04/27 06:30 LEGR 270630Z 27001KT 9999 FEW020 SCT050 14/13 Q1017
LEMG - Malaga (civ/Mil), Spain
Distance from station: OSO 227km
Actualización: 27/04/2018 08:30
Few Clouds
Few Clouds
 Viento del ONO
Viento: ONO 15 km/h
Temperatura: 15°C
Rocío: 14°C
Humedad: 94%
Barómetro: 1016 hPa
Clouds: Few Clouds
Visibility: 10 km
Cloud details: Few Clouds 762 m
2018/04/27 06:30 LEMG 270630Z 29008KT 9999 FEW025 15/14 Q1016 NOSIG
 
LEZL - Sevilla (civ/Mil, Spain
Distance from station: S 318km
Actualización: 27/04/2018 08:30
Mist, Few clouds
Mist, Few clouds
 Viento del SSE
Viento: SSE 7 km/h
Temperatura: 15°C
Rocío: 14°C
Humedad: 94%
Barómetro: 1016 hPa
Resumen: Mist
Clouds: Few Clouds
Visibility: 4 km
Cloud details: Few Clouds 853 m
2018/04/27 06:30 LEZL 270630Z 16004KT 4000 BR FEW028 15/14 Q1016 NOSIG
LEVT - Vitoria, Spain
Distance from station: NO 226km
Actualización: 27/04/2018 08:30
Muy nuboso
Muy nuboso
 Viento del varies
Viento: varies 2 km/h
Temperatura: 8°C
Rocío: 7°C
Humedad: 93%
Barómetro: 1014 hPa
Clouds: Muy nuboso
Visibility: 10 km
Cloud details: Muy nuboso 1219 m
2018/04/27 06:30 LEVT 270630Z VRB01KT 9999 BKN040 08/07 Q1014
 
LEBB - Bilbao/Sondica, Spain
Distance from station: NNO 235km
Actualización: 27/04/2018 08:30
Parcialmente nuboso
Parcialmente nuboso
 Viento del ESE
Viento: ESE 7 km/h
Temperatura: 11°C
Rocío: 10°C
Humedad: 94%
Barómetro: 1014 hPa
Clouds: Parcialmente nuboso
Visibility: 10 km
Cloud details: Parcialmente nuboso 2134 m
2018/04/27 06:30 LEBB 270630Z 12004KT 9999 SCT070 11/10 Q1014 NOSIG
LESO - San Sebastian/Fu, Spain
Distance from station: N 231km
Actualización: 27/04/2018 08:30
Despejado
Despejado
 Viento del SSO
Viento: SSO 17 km/h
Temperatura: 14°C
Rocío: 8°C
Humedad: 67%
Barómetro: 1014 hPa
Resumen: Despejado
Visibility: greater than 10 km
2018/04/27 06:30 LESO 270630Z 21009KT CAVOK 14/08 Q1014
 
LEVD - Valladolid(Mil/C, Spain
Distance from station: ONO 239km
Actualización: 27/04/2018 08:30
Despejado
Despejado
 Viento del OSO
Viento: OSO 11 km/h
Temperatura: 9°C
Sensación frio: 7°C
Rocío: 7°C
Humedad: 87%
Barómetro: 1014 hPa
Resumen: Despejado
Visibility: greater than 10 km
2018/04/27 06:30 LEVD 270630Z 25006KT CAVOK 09/07 Q1014
LESA - Salamanca (civ/M, Spain
Distance from station: ONO 349km
Actualización: 27/04/2018 08:30
Despejado
Despejado
 Viento del OSO
Viento: OSO 15 km/h
Temperatura: 8°C
Sensación frio: 5°C
Rocío: 6°C
Humedad: 87%
Barómetro: 1016 hPa
Resumen: Despejado
Visibility: greater than 10 km
2018/04/27 06:30 LESA 270630Z 24008KT CAVOK 08/06 Q1016
 
LEXJ - Santander/Paraya, Spain
Distance from station: NNO 247km
Actualización: 27/04/2018 08:30
Despejado
Despejado
 Viento del SO
Viento: SO 11 km/h
Temperatura: 13°C
Rocío: 10°C
Humedad: 82%
Barómetro: 1014 hPa
Resumen: Despejado
Visibility: greater than 10 km
2018/04/27 06:30 LEXJ 270630Z 22006KT 180V250 CAVOK 13/10 Q1014
LEAS - Asturias/Aviles, Spain
Distance from station: NO 214km
Actualización: 27/04/2018 08:30
Muy nuboso
Muy nuboso
 Viento del ONO
Viento: ONO 31 km/h
Temperatura: 12°C
Rocío: 10°C
Humedad: 88%
Barómetro: 1015 hPa
Clouds: Muy nuboso
Visibility: 10 km
Cloud details: Few Clouds 549 m
Muy nuboso 1158 m
2018/04/27 06:30 LEAS 270630Z 29017KT 270V330 9999 FEW018 BKN038 12/10 Q1015 NOSIG
 
LECO - La Coruna/Alvedr, Spain
Distance from station: ONO 222km
Actualización: 27/04/2018 08:30
Muy nuboso
Muy nuboso
 Viento del O
Viento: O 9 km/h
Temperatura: 10°C
Sensación frio: 9°C
Rocío: 8°C
Humedad: 88%
Barómetro: 1017 hPa
Clouds: Muy nuboso
Visibility: 10 km
Cloud details: Muy nuboso 1280 m
2018/04/27 06:30 LECO 270630Z 26005KT 230V290 9999 BKN042 10/08 Q1017 NOSIG
LEVX - Vigo/Peinador, Spain
Distance from station: O 214km
Actualización: 27/04/2018 08:30
Muy nuboso
Muy nuboso
 Viento del varies
Viento: varies 4 km/h
Temperatura: 10°C
Rocío: 9°C
Humedad: 94%
Barómetro: 1017 hPa
Clouds: Muy nuboso
Visibility: 9 km
Cloud details: Few Clouds 274 m
Muy nuboso 579 m
2018/04/27 06:30 LEVX 270630Z VRB02KT 9000 FEW009 BKN019 10/09 Q1017 NOSIG